sensor_id;sensor_type;location;lat;lon;timestamp;P1;durP1;ratioP1;P2;durP2;ratioP2
23282;SDS011;11810;51.178;3.878;2023-05-10T00:00:28;55.15;;;25.30;;
23282;SDS011;11810;51.178;3.878;2023-05-10T00:02:54;70.75;;;33.47;;
23282;SDS011;11810;51.178;3.878;2023-05-10T00:05:20;45.13;;;22.10;;
23282;SDS011;11810;51.178;3.878;2023-05-10T00:07:46;40.40;;;19.85;;
23282;SDS011;11810;51.178;3.878;2023-05-10T00:10:12;41.15;;;22.98;;
23282;SDS011;11810;51.178;3.878;2023-05-10T00:12:38;51.60;;;25.80;;
23282;SDS011;11810;51.178;3.878;2023-05-10T00:15:05;51.40;;;22.65;;
23282;SDS011;11810;51.178;3.878;2023-05-10T00:17:31;54.92;;;25.55;;
23282;SDS011;11810;51.178;3.878;2023-05-10T00:19:57;51.95;;;24.70;;
23282;SDS011;11810;51.178;3.878;2023-05-10T00:22:23;67.95;;;32.67;;
23282;SDS011;11810;51.178;3.878;2023-05-10T00:24:49;74.07;;;34.03;;
23282;SDS011;11810;51.178;3.878;2023-05-10T00:27:15;57.95;;;28.23;;
23282;SDS011;11810;51.178;3.878;2023-05-10T00:29:41;56.55;;;28.83;;
23282;SDS011;11810;51.178;3.878;2023-05-10T00:32:07;55.40;;;27.60;;
23282;SDS011;11810;51.178;3.878;2023-05-10T00:34:33;57.63;;;27.60;;
23282;SDS011;11810;51.178;3.878;2023-05-10T00:36:59;57.28;;;28.63;;
23282;SDS011;11810;51.178;3.878;2023-05-10T00:39:25;65.90;;;30.40;;
23282;SDS011;11810;51.178;3.878;2023-05-10T00:41:53;58.13;;;27.75;;
23282;SDS011;11810;51.178;3.878;2023-05-10T00:44:19;55.63;;;27.88;;
23282;SDS011;11810;51.178;3.878;2023-05-10T00:46:45;57.63;;;28.85;;
23282;SDS011;11810;51.178;3.878;2023-05-10T00:49:12;61.30;;;31.38;;
23282;SDS011;11810;51.178;3.878;2023-05-10T00:51:38;63.50;;;32.03;;
23282;SDS011;11810;51.178;3.878;2023-05-10T00:54:04;71.22;;;32.83;;
23282;SDS011;11810;51.178;3.878;2023-05-10T00:56:31;67.30;;;32.70;;
23282;SDS011;11810;51.178;3.878;2023-05-10T00:58:58;60.22;;;32.35;;
23282;SDS011;11810;51.178;3.878;2023-05-10T01:01:24;71.03;;;35.53;;
23282;SDS011;11810;51.178;3.878;2023-05-10T01:03:50;71.43;;;34.70;;
23282;SDS011;11810;51.178;3.878;2023-05-10T01:06:17;65.75;;;32.80;;
23282;SDS011;11810;51.178;3.878;2023-05-10T01:08:43;66.72;;;33.10;;
23282;SDS011;11810;51.178;3.878;2023-05-10T01:11:09;66.85;;;32.47;;
23282;SDS011;11810;51.178;3.878;2023-05-10T01:13:38;63.30;;;31.90;;
23282;SDS011;11810;51.178;3.878;2023-05-10T01:16:07;75.72;;;35.33;;
23282;SDS011;11810;51.178;3.878;2023-05-10T01:18:35;63.83;;;32.22;;
23282;SDS011;11810;51.178;3.878;2023-05-10T01:30:17;96.47;;;43.60;;
23282;SDS011;11810;51.178;3.878;2023-05-10T01:35:35;349.35;;;155.90;;
23282;SDS011;11810;51.178;3.878;2023-05-10T01:38:14;359.27;;;163.38;;
23282;SDS011;11810;51.178;3.878;2023-05-10T01:43:32;217.35;;;108.97;;
23282;SDS011;11810;51.178;3.878;2023-05-10T01:46:07;220.18;;;110.78;;
23282;SDS011;11810;51.178;3.878;2023-05-10T01:48:57;151.57;;;78.30;;
23282;SDS011;11810;51.178;3.878;2023-05-10T01:51:23;188.27;;;97.22;;
23282;SDS011;11810;51.178;3.878;2023-05-10T01:53:54;186.88;;;94.07;;
23282;SDS011;11810;51.178;3.878;2023-05-10T01:56:25;180.95;;;93.75;;
23282;SDS011;11810;51.178;3.878;2023-05-10T01:58:54;141.23;;;70.65;;
23282;SDS011;11810;51.178;3.878;2023-05-10T02:01:21;138.82;;;71.38;;
23282;SDS011;11810;51.178;3.878;2023-05-10T02:03:49;79.75;;;38.67;;
23282;SDS011;11810;51.178;3.878;2023-05-10T02:06:18;65.63;;;33.03;;
23282;SDS011;11810;51.178;3.878;2023-05-10T02:08:45;66.32;;;31.85;;
23282;SDS011;11810;51.178;3.878;2023-05-10T02:11:13;65.43;;;33.05;;
23282;SDS011;11810;51.178;3.878;2023-05-10T02:13:39;66.10;;;32.03;;
23282;SDS011;11810;51.178;3.878;2023-05-10T02:16:06;68.97;;;33.97;;
23282;SDS011;11810;51.178;3.878;2023-05-10T02:18:33;76.00;;;35.00;;
23282;SDS011;11810;51.178;3.878;2023-05-10T02:21:02;71.80;;;35.35;;
23282;SDS011;11810;51.178;3.878;2023-05-10T02:23:28;73.07;;;35.92;;
23282;SDS011;11810;51.178;3.878;2023-05-10T02:25:55;67.55;;;33.83;;
23282;SDS011;11810;51.178;3.878;2023-05-10T02:28:23;68.43;;;33.22;;
23282;SDS011;11810;51.178;3.878;2023-05-10T02:30:51;65.43;;;33.92;;
23282;SDS011;11810;51.178;3.878;2023-05-10T02:33:18;65.20;;;32.63;;
23282;SDS011;11810;51.178;3.878;2023-05-10T02:35:46;65.38;;;31.25;;
23282;SDS011;11810;51.178;3.878;2023-05-10T02:38:13;69.25;;;32.55;;
23282;SDS011;11810;51.178;3.878;2023-05-10T02:40:40;64.97;;;31.70;;
23282;SDS011;11810;51.178;3.878;2023-05-10T02:43:09;62.92;;;31.63;;
23282;SDS011;11810;51.178;3.878;2023-05-10T02:45:38;63.22;;;31.40;;
23282;SDS011;11810;51.178;3.878;2023-05-10T02:48:05;66.22;;;30.70;;
23282;SDS011;11810;51.178;3.878;2023-05-10T02:50:32;70.88;;;33.15;;
23282;SDS011;11810;51.178;3.878;2023-05-10T02:53:06;68.93;;;32.95;;
23282;SDS011;11810;51.178;3.878;2023-05-10T02:55:44;71.32;;;32.65;;
23282;SDS011;11810;51.178;3.878;2023-05-10T02:58:14;72.47;;;34.65;;
23282;SDS011;11810;51.178;3.878;2023-05-10T03:00:40;85.90;;;36.42;;
23282;SDS011;11810;51.178;3.878;2023-05-10T03:03:05;97.05;;;46.67;;
23282;SDS011;11810;51.178;3.878;2023-05-10T03:05:31;85.15;;;41.55;;
23282;SDS011;11810;51.178;3.878;2023-05-10T03:07:58;89.70;;;43.85;;
23282;SDS011;11810;51.178;3.878;2023-05-10T03:10:28;99.68;;;45.85;;
23282;SDS011;11810;51.178;3.878;2023-05-10T03:15:33;106.55;;;47.42;;
23282;SDS011;11810;51.178;3.878;2023-05-10T03:18:21;92.10;;;42.92;;
23282;SDS011;11810;51.178;3.878;2023-05-10T03:20:49;77.07;;;36.92;;
23282;SDS011;11810;51.178;3.878;2023-05-10T03:23:40;80.43;;;39.17;;
23282;SDS011;11810;51.178;3.878;2023-05-10T03:26:05;75.38;;;36.75;;
23282;SDS011;11810;51.178;3.878;2023-05-10T03:28:33;78.15;;;37.33;;
23282;SDS011;11810;51.178;3.878;2023-05-10T03:31:00;75.18;;;36.33;;
23282;SDS011;11810;51.178;3.878;2023-05-10T03:33:29;74.57;;;34.45;;
23282;SDS011;11810;51.178;3.878;2023-05-10T03:35:55;70.43;;;33.33;;
23282;SDS011;11810;51.178;3.878;2023-05-10T03:38:21;65.18;;;34.40;;
23282;SDS011;11810;51.178;3.878;2023-05-10T03:40:47;70.38;;;34.63;;
23282;SDS011;11810;51.178;3.878;2023-05-10T03:43:12;72.18;;;34.88;;
23282;SDS011;11810;51.178;3.878;2023-05-10T03:45:38;74.50;;;35.30;;
23282;SDS011;11810;51.178;3.878;2023-05-10T03:48:05;67.40;;;34.47;;
23282;SDS011;11810;51.178;3.878;2023-05-10T03:50:31;72.07;;;35.47;;
23282;SDS011;11810;51.178;3.878;2023-05-10T03:52:57;72.25;;;37.50;;
23282;SDS011;11810;51.178;3.878;2023-05-10T03:55:23;70.70;;;36.25;;
23282;SDS011;11810;51.178;3.878;2023-05-10T03:57:49;61.97;;;35.80;;
23282;SDS011;11810;51.178;3.878;2023-05-10T04:00:15;68.93;;;36.50;;
23282;SDS011;11810;51.178;3.878;2023-05-10T04:02:41;67.70;;;36.25;;
23282;SDS011;11810;51.178;3.878;2023-05-10T04:05:07;66.63;;;35.88;;
23282;SDS011;11810;51.178;3.878;2023-05-10T04:07:33;68.47;;;37.67;;
23282;SDS011;11810;51.178;3.878;2023-05-10T04:09:59;69.90;;;36.33;;
23282;SDS011;11810;51.178;3.878;2023-05-10T04:12:26;68.22;;;37.10;;
23282;SDS011;11810;51.178;3.878;2023-05-10T04:14:51;69.03;;;36.80;;
23282;SDS011;11810;51.178;3.878;2023-05-10T04:17:17;74.00;;;36.65;;
23282;SDS011;11810;51.178;3.878;2023-05-10T04:19:43;72.18;;;37.05;;
23282;SDS011;11810;51.178;3.878;2023-05-10T04:22:09;71.05;;;37.17;;
23282;SDS011;11810;51.178;3.878;2023-05-10T04:24:35;65.97;;;37.20;;
23282;SDS011;11810;51.178;3.878;2023-05-10T04:27:01;63.88;;;36.90;;
23282;SDS011;11810;51.178;3.878;2023-05-10T04:29:27;65.38;;;36.45;;
23282;SDS011;11810;51.178;3.878;2023-05-10T04:31:54;72.10;;;37.78;;
23282;SDS011;11810;51.178;3.878;2023-05-10T04:34:21;67.10;;;36.05;;
23282;SDS011;11810;51.178;3.878;2023-05-10T04:36:47;63.30;;;35.97;;
23282;SDS011;11810;51.178;3.878;2023-05-10T04:39:13;61.13;;;35.70;;
23282;SDS011;11810;51.178;3.878;2023-05-10T04:41:39;65.95;;;37.17;;
23282;SDS011;11810;51.178;3.878;2023-05-10T04:44:05;61.67;;;35.67;;
23282;SDS011;11810;51.178;3.878;2023-05-10T04:46:31;71.00;;;37.53;;
23282;SDS011;11810;51.178;3.878;2023-05-10T04:48:58;64.70;;;36.60;;
23282;SDS011;11810;51.178;3.878;2023-05-10T04:51:24;61.53;;;35.40;;
23282;SDS011;11810;51.178;3.878;2023-05-10T04:53:50;60.72;;;33.97;;
23282;SDS011;11810;51.178;3.878;2023-05-10T04:56:16;57.38;;;33.63;;
23282;SDS011;11810;51.178;3.878;2023-05-10T04:58:42;61.72;;;35.58;;
23282;SDS011;11810;51.178;3.878;2023-05-10T05:01:08;57.15;;;33.60;;
23282;SDS011;11810;51.178;3.878;2023-05-10T05:03:35;57.58;;;32.95;;
23282;SDS011;11810;51.178;3.878;2023-05-10T05:06:02;56.83;;;32.60;;
23282;SDS011;11810;51.178;3.878;2023-05-10T05:08:28;57.17;;;33.65;;
23282;SDS011;11810;51.178;3.878;2023-05-10T05:10:54;59.95;;;33.42;;
23282;SDS011;11810;51.178;3.878;2023-05-10T05:13:20;56.67;;;33.35;;
23282;SDS011;11810;51.178;3.878;2023-05-10T05:15:46;54.97;;;34.67;;
23282;SDS011;11810;51.178;3.878;2023-05-10T05:18:12;56.15;;;33.28;;
23282;SDS011;11810;51.178;3.878;2023-05-10T05:20:38;51.88;;;32.47;;
23282;SDS011;11810;51.178;3.878;2023-05-10T05:23:04;45.22;;;30.48;;
23282;SDS011;11810;51.178;3.878;2023-05-10T05:25:30;46.60;;;27.92;;
23282;SDS011;11810;51.178;3.878;2023-05-10T05:27:56;44.15;;;27.23;;
23282;SDS011;11810;51.178;3.878;2023-05-10T05:30:22;41.67;;;27.27;;
23282;SDS011;11810;51.178;3.878;2023-05-10T05:32:48;45.67;;;27.35;;
23282;SDS011;11810;51.178;3.878;2023-05-10T05:35:14;42.60;;;25.98;;
23282;SDS011;11810;51.178;3.878;2023-05-10T05:37:39;33.70;;;23.38;;
23282;SDS011;11810;51.178;3.878;2023-05-10T05:40:05;31.60;;;22.00;;
23282;SDS011;11810;51.178;3.878;2023-05-10T05:42:32;36.10;;;24.02;;
23282;SDS011;11810;51.178;3.878;2023-05-10T05:44:58;32.47;;;21.38;;
23282;SDS011;11810;51.178;3.878;2023-05-10T05:47:24;32.45;;;21.80;;
23282;SDS011;11810;51.178;3.878;2023-05-10T05:49:50;30.58;;;21.33;;
23282;SDS011;11810;51.178;3.878;2023-05-10T05:52:16;34.20;;;23.35;;
23282;SDS011;11810;51.178;3.878;2023-05-10T05:54:42;32.58;;;21.20;;
23282;SDS011;11810;51.178;3.878;2023-05-10T05:57:08;32.25;;;22.20;;
23282;SDS011;11810;51.178;3.878;2023-05-10T05:59:34;31.58;;;20.92;;
23282;SDS011;11810;51.178;3.878;2023-05-10T06:02:00;34.33;;;22.90;;
23282;SDS011;11810;51.178;3.878;2023-05-10T06:04:26;35.92;;;22.90;;
23282;SDS011;11810;51.178;3.878;2023-05-10T06:06:52;34.80;;;22.83;;
23282;SDS011;11810;51.178;3.878;2023-05-10T06:09:18;33.08;;;22.50;;
23282;SDS011;11810;51.178;3.878;2023-05-10T06:11:44;35.35;;;22.83;;
23282;SDS011;11810;51.178;3.878;2023-05-10T06:14:10;31.33;;;21.13;;
23282;SDS011;11810;51.178;3.878;2023-05-10T06:16:36;32.92;;;22.13;;
23282;SDS011;11810;51.178;3.878;2023-05-10T06:19:02;33.13;;;22.75;;
23282;SDS011;11810;51.178;3.878;2023-05-10T06:21:28;50.47;;;30.73;;
23282;SDS011;11810;51.178;3.878;2023-05-10T06:23:55;102.82;;;59.05;;
23282;SDS011;11810;51.178;3.878;2023-05-10T06:26:21;69.13;;;39.63;;
23282;SDS011;11810;51.178;3.878;2023-05-10T06:28:47;26.23;;;17.30;;
23282;SDS011;11810;51.178;3.878;2023-05-10T06:31:12;21.48;;;15.23;;
23282;SDS011;11810;51.178;3.878;2023-05-10T06:33:38;29.17;;;16.17;;
23282;SDS011;11810;51.178;3.878;2023-05-10T06:36:05;28.25;;;17.67;;
23282;SDS011;11810;51.178;3.878;2023-05-10T06:38:31;21.40;;;15.57;;
23282;SDS011;11810;51.178;3.878;2023-05-10T06:40:57;23.13;;;16.23;;
23282;SDS011;11810;51.178;3.878;2023-05-10T06:43:23;20.90;;;14.32;;
23282;SDS011;11810;51.178;3.878;2023-05-10T06:45:51;21.95;;;14.73;;
23282;SDS011;11810;51.178;3.878;2023-05-10T06:48:17;24.73;;;16.30;;
23282;SDS011;11810;51.178;3.878;2023-05-10T06:50:43;26.17;;;17.55;;
23282;SDS011;11810;51.178;3.878;2023-05-10T06:53:09;20.85;;;15.52;;
23282;SDS011;11810;51.178;3.878;2023-05-10T06:55:35;20.90;;;13.52;;
23282;SDS011;11810;51.178;3.878;2023-05-10T06:58:01;15.85;;;12.77;;
23282;SDS011;11810;51.178;3.878;2023-05-10T07:00:27;19.45;;;14.45;;
23282;SDS011;11810;51.178;3.878;2023-05-10T07:02:53;18.83;;;14.30;;
23282;SDS011;11810;51.178;3.878;2023-05-10T07:05:20;18.33;;;14.07;;
23282;SDS011;11810;51.178;3.878;2023-05-10T07:07:46;18.48;;;14.55;;
23282;SDS011;11810;51.178;3.878;2023-05-10T07:10:12;20.10;;;15.38;;
23282;SDS011;11810;51.178;3.878;2023-05-10T07:12:38;22.90;;;16.13;;
23282;SDS011;11810;51.178;3.878;2023-05-10T07:15:04;22.27;;;16.02;;
23282;SDS011;11810;51.178;3.878;2023-05-10T07:17:31;20.92;;;14.60;;
23282;SDS011;11810;51.178;3.878;2023-05-10T07:19:58;20.70;;;15.20;;
23282;SDS011;11810;51.178;3.878;2023-05-10T07:22:25;22.40;;;14.18;;
23282;SDS011;11810;51.178;3.878;2023-05-10T07:24:51;18.98;;;13.70;;
23282;SDS011;11810;51.178;3.878;2023-05-10T07:27:17;16.63;;;13.07;;
23282;SDS011;11810;51.178;3.878;2023-05-10T07:29:43;16.75;;;12.43;;
23282;SDS011;11810;51.178;3.878;2023-05-10T07:32:09;16.63;;;12.57;;
23282;SDS011;11810;51.178;3.878;2023-05-10T07:34:35;13.82;;;10.32;;
23282;SDS011;11810;51.178;3.878;2023-05-10T07:37:01;40.47;;;25.95;;
23282;SDS011;11810;51.178;3.878;2023-05-10T07:39:27;23.55;;;14.70;;
23282;SDS011;11810;51.178;3.878;2023-05-10T07:41:53;19.92;;;12.57;;
23282;SDS011;11810;51.178;3.878;2023-05-10T07:44:19;19.48;;;14.57;;
23282;SDS011;11810;51.178;3.878;2023-05-10T07:46:46;25.05;;;18.27;;
23282;SDS011;11810;51.178;3.878;2023-05-10T07:49:12;35.83;;;24.98;;
23282;SDS011;11810;51.178;3.878;2023-05-10T07:51:38;63.47;;;41.22;;
23282;SDS011;11810;51.178;3.878;2023-05-10T07:54:04;89.15;;;52.95;;
23282;SDS011;11810;51.178;3.878;2023-05-10T07:56:31;105.38;;;62.65;;
23282;SDS011;11810;51.178;3.878;2023-05-10T07:59:01;57.17;;;35.95;;
23282;SDS011;11810;51.178;3.878;2023-05-10T08:01:32;127.25;;;73.00;;
23282;SDS011;11810;51.178;3.878;2023-05-10T08:03:58;96.32;;;54.50;;
23282;SDS011;11810;51.178;3.878;2023-05-10T08:06:25;68.25;;;41.15;;
23282;SDS011;11810;51.178;3.878;2023-05-10T08:08:55;22.35;;;13.00;;
23282;SDS011;11810;51.178;3.878;2023-05-10T08:11:21;11.98;;;8.25;;
23282;SDS011;11810;51.178;3.878;2023-05-10T08:13:47;11.95;;;7.13;;
23282;SDS011;11810;51.178;3.878;2023-05-10T08:16:14;10.00;;;6.13;;
23282;SDS011;11810;51.178;3.878;2023-05-10T08:18:44;10.75;;;7.80;;
23282;SDS011;11810;51.178;3.878;2023-05-10T08:21:12;69.95;;;40.17;;
23282;SDS011;11810;51.178;3.878;2023-05-10T08:23:38;47.47;;;28.50;;
23282;SDS011;11810;51.178;3.878;2023-05-10T08:26:04;34.63;;;25.55;;
23282;SDS011;11810;51.178;3.878;2023-05-10T08:28:31;56.58;;;40.92;;
23282;SDS011;11810;51.178;3.878;2023-05-10T08:30:57;49.70;;;34.97;;
23282;SDS011;11810;51.178;3.878;2023-05-10T08:33:23;40.28;;;25.15;;
23282;SDS011;11810;51.178;3.878;2023-05-10T08:35:49;42.70;;;27.33;;
23282;SDS011;11810;51.178;3.878;2023-05-10T08:38:15;64.75;;;40.55;;
23282;SDS011;11810;51.178;3.878;2023-05-10T08:40:43;75.32;;;48.55;;
23282;SDS011;11810;51.178;3.878;2023-05-10T08:43:11;48.40;;;29.77;;
23282;SDS011;11810;51.178;3.878;2023-05-10T08:45:40;18.98;;;13.40;;
23282;SDS011;11810;51.178;3.878;2023-05-10T08:48:08;19.35;;;12.02;;
23282;SDS011;11810;51.178;3.878;2023-05-10T08:50:35;81.45;;;47.70;;
23282;SDS011;11810;51.178;3.878;2023-05-10T08:53:06;81.82;;;47.58;;
23282;SDS011;11810;51.178;3.878;2023-05-10T08:55:36;31.88;;;20.20;;
23282;SDS011;11810;51.178;3.878;2023-05-10T08:58:04;96.15;;;55.40;;
23282;SDS011;11810;51.178;3.878;2023-05-10T09:00:30;81.68;;;48.45;;
23282;SDS011;11810;51.178;3.878;2023-05-10T09:02:57;63.95;;;41.22;;
23282;SDS011;11810;51.178;3.878;2023-05-10T09:05:24;64.50;;;40.22;;
23282;SDS011;11810;51.178;3.878;2023-05-10T09:07:50;51.72;;;32.33;;
23282;SDS011;11810;51.178;3.878;2023-05-10T09:10:16;30.08;;;19.80;;
23282;SDS011;11810;51.178;3.878;2023-05-10T09:12:42;15.93;;;10.98;;
23282;SDS011;11810;51.178;3.878;2023-05-10T09:15:10;18.05;;;12.35;;
23282;SDS011;11810;51.178;3.878;2023-05-10T09:17:37;15.05;;;11.15;;
23282;SDS011;11810;51.178;3.878;2023-05-10T09:20:05;15.93;;;11.52;;
23282;SDS011;11810;51.178;3.878;2023-05-10T09:22:32;12.25;;;9.40;;
23282;SDS011;11810;51.178;3.878;2023-05-10T09:27:36;10.50;;;9.30;;
23282;SDS011;11810;51.178;3.878;2023-05-10T09:30:03;17.55;;;10.27;;
23282;SDS011;11810;51.178;3.878;2023-05-10T09:32:36;14.30;;;11.32;;
23282;SDS011;11810;51.178;3.878;2023-05-10T09:35:23;18.83;;;11.48;;
23282;SDS011;11810;51.178;3.878;2023-05-10T09:37:52;16.10;;;12.02;;
23282;SDS011;11810;51.178;3.878;2023-05-10T09:40:21;28.20;;;18.02;;
23282;SDS011;11810;51.178;3.878;2023-05-10T09:45:32;33.88;;;22.10;;
23282;SDS011;11810;51.178;3.878;2023-05-10T09:48:03;34.00;;;22.05;;
23282;SDS011;11810;51.178;3.878;2023-05-10T09:50:29;35.40;;;22.85;;
23282;SDS011;11810;51.178;3.878;2023-05-10T09:55:44;36.22;;;22.10;;
23282;SDS011;11810;51.178;3.878;2023-05-10T09:58:11;37.92;;;22.10;;
23282;SDS011;11810;51.178;3.878;2023-05-10T10:00:39;40.95;;;21.63;;
23282;SDS011;11810;51.178;3.878;2023-05-10T10:03:11;32.22;;;20.75;;
23282;SDS011;11810;51.178;3.878;2023-05-10T10:05:42;34.20;;;20.65;;
23282;SDS011;11810;51.178;3.878;2023-05-10T10:08:09;33.10;;;20.88;;
23282;SDS011;11810;51.178;3.878;2023-05-10T10:10:35;31.60;;;20.15;;
23282;SDS011;11810;51.178;3.878;2023-05-10T10:13:01;34.70;;;21.38;;
23282;SDS011;11810;51.178;3.878;2023-05-10T10:15:28;28.10;;;19.42;;
23282;SDS011;11810;51.178;3.878;2023-05-10T10:17:54;30.17;;;20.17;;
23282;SDS011;11810;51.178;3.878;2023-05-10T10:20:20;30.90;;;18.75;;
23282;SDS011;11810;51.178;3.878;2023-05-10T10:22:47;30.10;;;20.23;;
23282;SDS011;11810;51.178;3.878;2023-05-10T10:25:14;31.33;;;19.40;;
23282;SDS011;11810;51.178;3.878;2023-05-10T10:28:05;26.75;;;18.55;;
23282;SDS011;11810;51.178;3.878;2023-05-10T10:36:20;24.85;;;18.70;;
23282;SDS011;11810;51.178;3.878;2023-05-10T10:49:26;24.48;;;17.23;;
23282;SDS011;11810;51.178;3.878;2023-05-10T10:55:14;21.67;;;16.00;;
23282;SDS011;11810;51.178;3.878;2023-05-10T11:00:32;24.83;;;17.80;;
23282;SDS011;11810;51.178;3.878;2023-05-10T11:05:49;21.08;;;16.55;;
23282;SDS011;11810;51.178;3.878;2023-05-10T11:15:54;25.00;;;16.48;;
23282;SDS011;11810;51.178;3.878;2023-05-10T11:18:29;25.55;;;16.73;;
23282;SDS011;11810;51.178;3.878;2023-05-10T11:20:59;29.42;;;18.20;;
23282;SDS011;11810;51.178;3.878;2023-05-10T11:26:14;31.23;;;18.35;;
23282;SDS011;11810;51.178;3.878;2023-05-10T11:28:47;27.83;;;19.83;;
23282;SDS011;11810;51.178;3.878;2023-05-10T11:31:14;27.63;;;18.48;;
23282;SDS011;11810;51.178;3.878;2023-05-10T11:33:47;31.05;;;20.17;;
23282;SDS011;11810;51.178;3.878;2023-05-10T11:36:15;31.38;;;20.70;;
23282;SDS011;11810;51.178;3.878;2023-05-10T11:38:42;30.60;;;19.27;;
23282;SDS011;11810;51.178;3.878;2023-05-10T11:41:09;28.27;;;17.98;;
23282;SDS011;11810;51.178;3.878;2023-05-10T11:43:36;35.95;;;19.73;;
23282;SDS011;11810;51.178;3.878;2023-05-10T11:46:09;28.70;;;19.50;;
23282;SDS011;11810;51.178;3.878;2023-05-10T11:48:41;38.55;;;20.88;;
23282;SDS011;11810;51.178;3.878;2023-05-10T11:51:08;32.92;;;21.83;;
23282;SDS011;11810;51.178;3.878;2023-05-10T11:53:35;3.50;;;3.03;;
23282;SDS011;11810;51.178;3.878;2023-05-10T11:56:04;0.25;;;0.25;;
23282;SDS011;11810;51.178;3.878;2023-05-10T11:58:32;1.50;;;1.40;;
23282;SDS011;11810;51.178;3.878;2023-05-10T12:00:59;1.30;;;1.30;;
23282;SDS011;11810;51.178;3.878;2023-05-10T12:03:25;2.15;;;1.08;;
23282;SDS011;11810;51.178;3.878;2023-05-10T12:05:55;0.65;;;0.65;;
23282;SDS011;11810;51.178;3.878;2023-05-10T12:08:25;2.05;;;0.95;;
23282;SDS011;11810;51.178;3.878;2023-05-10T12:11:05;0.40;;;0.40;;
23282;SDS011;11810;51.178;3.878;2023-05-10T12:13:37;0.77;;;0.77;;
23282;SDS011;11810;51.178;3.878;2023-05-10T12:16:19;1.13;;;1.13;;
23282;SDS011;11810;51.178;3.878;2023-05-10T12:18:55;1.73;;;1.63;;
23282;SDS011;11810;51.178;3.878;2023-05-10T12:21:23;1.45;;;1.42;;
23282;SDS011;11810;51.178;3.878;2023-05-10T12:23:50;0.65;;;0.65;;
23282;SDS011;11810;51.178;3.878;2023-05-10T12:26:18;3.58;;;2.28;;
23282;SDS011;11810;51.178;3.878;2023-05-10T12:28:46;0.65;;;0.65;;
23282;SDS011;11810;51.178;3.878;2023-05-10T12:31:12;2.00;;;1.67;;
23282;SDS011;11810;51.178;3.878;2023-05-10T12:33:39;0.85;;;0.85;;
23282;SDS011;11810;51.178;3.878;2023-05-10T12:36:10;4.50;;;2.45;;
23282;SDS011;11810;51.178;3.878;2023-05-10T12:38:38;1.77;;;1.67;;
23282;SDS011;11810;51.178;3.878;2023-05-10T12:41:17;1.90;;;1.80;;
23282;SDS011;11810;51.178;3.878;2023-05-10T12:43:44;3.10;;;0.80;;
23282;SDS011;11810;51.178;3.878;2023-05-10T12:46:14;1.48;;;1.38;;
23282;SDS011;11810;51.178;3.878;2023-05-10T12:48:42;2.03;;;1.85;;
23282;SDS011;11810;51.178;3.878;2023-05-10T12:51:09;0.73;;;0.73;;
23282;SDS011;11810;51.178;3.878;2023-05-10T12:53:37;2.53;;;1.60;;
23282;SDS011;11810;51.178;3.878;2023-05-10T12:56:04;1.08;;;1.08;;
23282;SDS011;11810;51.178;3.878;2023-05-10T12:58:30;1.25;;;1.23;;
23282;SDS011;11810;51.178;3.878;2023-05-10T13:00:57;2.83;;;1.42;;
23282;SDS011;11810;51.178;3.878;2023-05-10T13:03:23;1.35;;;1.00;;
23282;SDS011;11810;51.178;3.878;2023-05-10T13:05:49;8.07;;;1.88;;
23282;SDS011;11810;51.178;3.878;2023-05-10T13:08:15;3.05;;;2.28;;
23282;SDS011;11810;51.178;3.878;2023-05-10T13:10:41;1.00;;;1.00;;
23282;SDS011;11810;51.178;3.878;2023-05-10T13:13:07;5.03;;;1.88;;
23282;SDS011;11810;51.178;3.878;2023-05-10T13:15:33;0.85;;;0.85;;
23282;SDS011;11810;51.178;3.878;2023-05-10T13:18:00;7.32;;;1.45;;
23282;SDS011;11810;51.178;3.878;2023-05-10T13:20:26;0.50;;;0.50;;
23282;SDS011;11810;51.178;3.878;2023-05-10T13:22:52;0.47;;;0.47;;
23282;SDS011;11810;51.178;3.878;2023-05-10T13:25:18;7.82;;;2.97;;
23282;SDS011;11810;51.178;3.878;2023-05-10T13:27:44;0.77;;;0.77;;
23282;SDS011;11810;51.178;3.878;2023-05-10T13:30:11;0.68;;;0.68;;
23282;SDS011;11810;51.178;3.878;2023-05-10T13:32:37;1.13;;;0.90;;
23282;SDS011;11810;51.178;3.878;2023-05-10T13:35:03;1.00;;;0.90;;
23282;SDS011;11810;51.178;3.878;2023-05-10T13:37:30;6.57;;;5.18;;
23282;SDS011;11810;51.178;3.878;2023-05-10T13:39:57;4.00;;;3.72;;
23282;SDS011;11810;51.178;3.878;2023-05-10T13:42:23;3.00;;;2.80;;
23282;SDS011;11810;51.178;3.878;2023-05-10T13:44:49;2.35;;;2.25;;
23282;SDS011;11810;51.178;3.878;2023-05-10T13:47:16;2.22;;;2.00;;
23282;SDS011;11810;51.178;3.878;2023-05-10T13:49:42;2.17;;;1.83;;
23282;SDS011;11810;51.178;3.878;2023-05-10T13:52:08;5.25;;;2.88;;
23282;SDS011;11810;51.178;3.878;2023-05-10T13:54:35;0.90;;;0.90;;
23282;SDS011;11810;51.178;3.878;2023-05-10T13:57:02;0.65;;;0.65;;
23282;SDS011;11810;51.178;3.878;2023-05-10T13:59:28;0.75;;;0.75;;
23282;SDS011;11810;51.178;3.878;2023-05-10T14:01:57;0.40;;;0.40;;
23282;SDS011;11810;51.178;3.878;2023-05-10T14:04:23;3.33;;;2.30;;
23282;SDS011;11810;51.178;3.878;2023-05-10T14:06:49;2.70;;;1.55;;
23282;SDS011;11810;51.178;3.878;2023-05-10T14:09:15;1.23;;;1.10;;
23282;SDS011;11810;51.178;3.878;2023-05-10T14:11:42;0.65;;;0.65;;
23282;SDS011;11810;51.178;3.878;2023-05-10T14:14:11;1.55;;;1.48;;
23282;SDS011;11810;51.178;3.878;2023-05-10T14:16:41;0.30;;;0.30;;
23282;SDS011;11810;51.178;3.878;2023-05-10T14:19:08;0.63;;;0.63;;
23282;SDS011;11810;51.178;3.878;2023-05-10T14:21:35;7.85;;;1.42;;
23282;SDS011;11810;51.178;3.878;2023-05-10T14:24:01;1.58;;;1.48;;
23282;SDS011;11810;51.178;3.878;2023-05-10T14:26:27;0.10;;;0.10;;
23282;SDS011;11810;51.178;3.878;2023-05-10T14:28:53;1.50;;;1.13;;
23282;SDS011;11810;51.178;3.878;2023-05-10T14:31:19;0.57;;;0.57;;
23282;SDS011;11810;51.178;3.878;2023-05-10T14:33:46;1.15;;;1.10;;
23282;SDS011;11810;51.178;3.878;2023-05-10T14:36:12;0.55;;;0.55;;
23282;SDS011;11810;51.178;3.878;2023-05-10T14:38:38;0.52;;;0.52;;
23282;SDS011;11810;51.178;3.878;2023-05-10T14:41:05;0.52;;;0.52;;
23282;SDS011;11810;51.178;3.878;2023-05-10T14:43:31;1.10;;;1.05;;
23282;SDS011;11810;51.178;3.878;2023-05-10T14:45:57;2.83;;;2.58;;
23282;SDS011;11810;51.178;3.878;2023-05-10T14:48:23;0.20;;;0.20;;
23282;SDS011;11810;51.178;3.878;2023-05-10T14:50:49;0.20;;;0.20;;
23282;SDS011;11810;51.178;3.878;2023-05-10T14:53:17;0.25;;;0.25;;
23282;SDS011;11810;51.178;3.878;2023-05-10T14:55:43;0.95;;;0.95;;
23282;SDS011;11810;51.178;3.878;2023-05-10T14:58:09;0.43;;;0.43;;
23282;SDS011;11810;51.178;3.878;2023-05-10T15:00:35;0.47;;;0.47;;
23282;SDS011;11810;51.178;3.878;2023-05-10T15:03:01;1.13;;;1.10;;
23282;SDS011;11810;51.178;3.878;2023-05-10T15:05:27;0.20;;;0.20;;
23282;SDS011;11810;51.178;3.878;2023-05-10T15:07:53;0.55;;;0.55;;
23282;SDS011;11810;51.178;3.878;2023-05-10T15:10:19;1.73;;;1.63;;
23282;SDS011;11810;51.178;3.878;2023-05-10T15:12:45;0.10;;;0.10;;
23282;SDS011;11810;51.178;3.878;2023-05-10T15:15:11;0.20;;;0.20;;
23282;SDS011;11810;51.178;3.878;2023-05-10T15:17:37;0.82;;;0.80;;
23282;SDS011;11810;51.178;3.878;2023-05-10T15:20:03;0.30;;;0.30;;
23282;SDS011;11810;51.178;3.878;2023-05-10T15:22:29;0.95;;;0.95;;
23282;SDS011;11810;51.178;3.878;2023-05-10T15:24:57;0.45;;;0.45;;
23282;SDS011;11810;51.178;3.878;2023-05-10T15:27:24;0.68;;;0.68;;
23282;SDS011;11810;51.178;3.878;2023-05-10T15:29:51;0.50;;;0.50;;